createdAt,value
2018-03-30T00:00:52.359Z,4.26
2018-03-30T00:01:52.350Z,4.32
2018-03-30T00:02:52.342Z,4.20
2018-03-30T00:03:52.340Z,4.22
2018-03-30T00:04:52.330Z,4.20
2018-03-30T00:05:52.319Z,4.19
2018-03-30T00:06:52.311Z,4.10
2018-03-30T00:07:52.305Z,4.06
2018-03-30T00:08:52.296Z,4.06
2018-03-30T00:09:52.278Z,4.13
2018-03-30T00:10:52.281Z,4.14
2018-03-30T00:11:52.266Z,4.08
2018-03-30T00:12:52.261Z,4.06
2018-03-30T00:13:52.256Z,4.10
2018-03-30T00:14:52.252Z,4.12
2018-03-30T00:15:52.249Z,4.06
2018-03-30T00:16:52.238Z,4.06
2018-03-30T00:17:52.222Z,3.98
2018-03-30T00:18:52.217Z,4.04
2018-03-30T00:19:52.210Z,4.08
2018-03-30T00:20:52.207Z,3.99
2018-03-30T00:21:52.194Z,4.04
2018-03-30T00:22:52.191Z,4.01
2018-03-30T00:23:52.178Z,3.96
2018-03-30T00:24:52.163Z,3.96
2018-03-30T00:25:52.157Z,3.99
2018-03-30T00:26:52.155Z,4.01
2018-03-30T00:27:52.142Z,3.95
2018-03-30T00:28:52.129Z,3.98
2018-03-30T00:29:52.129Z,4.08
2018-03-30T00:30:52.114Z,3.98
2018-03-30T00:31:52.106Z,4.12
2018-03-30T00:32:52.101Z,4.06
2018-03-30T00:33:52.083Z,4.01
2018-03-30T00:34:52.086Z,3.98
2018-03-30T00:35:52.077Z,3.99
2018-03-30T00:36:52.064Z,3.94
2018-03-30T00:37:52.062Z,4.04
2018-03-30T00:38:52.048Z,3.98
2018-03-30T00:39:52.043Z,4.01
2018-03-30T00:40:52.043Z,4.01
2018-03-30T00:41:52.030Z,3.91
2018-03-30T00:42:52.017Z,4.01
2018-03-30T00:43:52.009Z,4.12
2018-03-30T00:44:52.010Z,4.10
2018-03-30T00:45:51.993Z,4.04
2018-03-30T00:46:51.982Z,4.08
2018-03-30T00:47:51.971Z,4.05
2018-03-30T00:48:51.979Z,4.12
2018-03-30T00:49:51.958Z,4.02
2018-03-30T00:50:51.947Z,3.99
2018-03-30T00:51:51.945Z,3.88
2018-03-30T00:52:51.935Z,3.83
2018-03-30T00:53:51.929Z,3.84
2018-03-30T00:54:51.927Z,3.86
2018-03-30T00:55:51.913Z,3.77
2018-03-30T00:56:51.900Z,3.78
2018-03-30T00:57:51.899Z,3.78
2018-03-30T00:58:51.908Z,3.74
2018-03-30T00:59:51.878Z,3.76
2018-03-30T01:00:51.870Z,3.77
2018-03-30T01:01:51.858Z,3.69
2018-03-30T01:02:51.854Z,3.70
2018-03-30T01:03:51.840Z,3.77
2018-03-30T01:04:51.832Z,3.74
2018-03-30T01:05:51.826Z,3.70
2018-03-30T01:06:51.817Z,3.73
2018-03-30T01:07:51.811Z,3.69
2018-03-30T01:08:51.800Z,3.74
2018-03-30T01:09:51.794Z,3.58
2018-03-30T01:10:51.786Z,3.60
2018-03-30T01:11:51.774Z,3.69
2018-03-30T01:12:51.769Z,3.60
2018-03-30T01:13:51.757Z,3.73
2018-03-30T01:14:51.755Z,3.59
2018-03-30T01:15:51.740Z,3.65
2018-03-30T01:16:51.734Z,3.60
2018-03-30T01:17:51.727Z,3.68
2018-03-30T01:18:51.718Z,3.60
2018-03-30T01:19:51.708Z,3.62
2018-03-30T01:20:51.699Z,3.65
2018-03-30T01:21:51.689Z,3.66
2018-03-30T01:22:51.684Z,3.73
2018-03-30T01:23:51.674Z,3.63
2018-03-30T01:24:51.668Z,3.69
2018-03-30T01:25:51.663Z,3.65
2018-03-30T01:26:51.649Z,3.66
2018-03-30T01:27:51.645Z,3.63
2018-03-30T01:28:51.631Z,3.66
2018-03-30T01:29:51.629Z,3.65
2018-03-30T01:30:51.618Z,3.65
2018-03-30T01:31:51.609Z,3.73
2018-03-30T01:32:51.606Z,3.74
2018-03-30T01:33:51.616Z,3.70
2018-03-30T01:34:51.584Z,3.70
2018-03-30T01:35:51.574Z,3.63
2018-03-30T01:36:51.568Z,3.65
2018-03-30T01:37:51.556Z,3.53
2018-03-30T01:38:51.548Z,3.55
2018-03-30T01:39:51.547Z,3.58
2018-03-30T01:40:51.572Z,3.68
2018-03-30T01:41:51.527Z,3.69
2018-03-30T01:42:51.523Z,3.65
2018-03-30T01:43:51.505Z,3.63
2018-03-30T01:44:51.500Z,3.62
2018-03-30T01:45:51.491Z,3.62
2018-03-30T01:46:51.486Z,3.59
2018-03-30T01:47:51.470Z,3.50
2018-03-30T01:48:51.465Z,3.50
2018-03-30T01:49:51.458Z,3.47
2018-03-30T01:50:51.453Z,3.45
2018-03-30T01:51:51.442Z,3.47
2018-03-30T01:52:51.433Z,3.51
2018-03-30T01:53:51.430Z,3.53
2018-03-30T01:54:51.416Z,3.51
2018-03-30T01:55:51.433Z,3.47
2018-03-30T01:56:51.402Z,3.41
2018-03-30T01:57:51.392Z,3.47
2018-03-30T01:58:51.379Z,3.53
2018-03-30T01:59:51.378Z,3.55
2018-03-30T02:00:51.363Z,3.59
2018-03-30T02:01:51.357Z,3.48
2018-03-30T02:02:51.350Z,3.50
2018-03-30T02:03:51.338Z,3.29
2018-03-30T02:04:51.342Z,3.47
2018-03-30T02:05:51.325Z,3.40
2018-03-30T02:06:51.328Z,3.37
2018-03-30T02:07:51.302Z,3.36
2018-03-30T02:08:51.296Z,3.34
2018-03-30T02:09:51.287Z,3.34
2018-03-30T02:10:51.279Z,3.32
2018-03-30T02:11:51.281Z,3.40
2018-03-30T02:12:51.261Z,3.37
2018-03-30T02:13:51.257Z,3.36
2018-03-30T02:14:51.253Z,3.34
2018-03-30T02:15:51.238Z,3.37
2018-03-30T02:16:51.233Z,3.28
2018-03-30T02:17:51.217Z,3.36
2018-03-30T02:18:51.217Z,3.28
2018-03-30T02:19:51.210Z,3.25
2018-03-30T02:20:51.196Z,3.28
2018-03-30T02:21:51.190Z,3.28
2018-03-30T02:22:51.180Z,3.34
2018-03-30T02:23:51.160Z,3.41
2018-03-30T02:24:51.160Z,3.31
2018-03-30T02:25:51.162Z,3.34
2018-03-30T02:26:51.146Z,3.44
2018-03-30T02:27:51.148Z,3.34
2018-03-30T02:28:51.129Z,3.34
2018-03-30T02:29:51.117Z,3.34
2018-03-30T02:30:51.121Z,3.40
2018-03-30T02:31:51.100Z,3.36
2018-03-30T02:32:51.092Z,3.28
2018-03-30T02:33:51.082Z,3.23
2018-03-30T02:34:51.075Z,3.31
2018-03-30T02:35:51.078Z,3.28
2018-03-30T02:36:51.056Z,3.28
2018-03-30T02:37:51.045Z,3.32
2018-03-30T02:38:51.040Z,3.21
2018-03-30T02:39:51.030Z,3.19
2018-03-30T02:40:51.021Z,3.19
2018-03-30T02:41:51.024Z,3.13
2018-03-30T02:42:51.005Z,3.10
2018-03-30T02:43:50.990Z,3.21
2018-03-30T02:44:50.989Z,3.07
2018-03-30T02:45:50.977Z,3.11
2018-03-30T02:46:50.975Z,3.10
2018-03-30T02:47:50.977Z,3.16
2018-03-30T02:48:50.953Z,3.10
2018-03-30T02:49:50.948Z,3.11
2018-03-30T02:50:50.933Z,3.08
2018-03-30T02:51:50.930Z,3.10
2018-03-30T02:52:50.918Z,3.05
2018-03-30T02:53:50.908Z,3.08
2018-03-30T02:54:50.907Z,3.13
2018-03-30T02:55:50.894Z,3.07
2018-03-30T02:56:50.893Z,3.05
2018-03-30T02:57:50.887Z,3.10
2018-03-30T02:58:50.865Z,3.05
2018-03-30T02:59:50.864Z,3.07
2018-03-30T03:00:50.844Z,3.08
2018-03-30T03:01:50.841Z,3.07
2018-03-30T03:02:50.859Z,3.05
2018-03-30T03:03:50.817Z,3.07
2018-03-30T03:04:50.812Z,2.95
2018-03-30T03:05:50.802Z,2.95
2018-03-30T03:06:50.801Z,2.95
2018-03-30T03:07:50.788Z,2.92
2018-03-30T03:08:50.780Z,2.97
2018-03-30T03:09:50.771Z,2.92
2018-03-30T03:10:50.762Z,2.92
2018-03-30T03:11:50.761Z,2.87
2018-03-30T03:12:50.740Z,2.85
2018-03-30T03:13:50.733Z,2.85
2018-03-30T03:14:50.726Z,2.83
2018-03-30T03:15:50.715Z,2.86
2018-03-30T03:16:50.709Z,2.79
2018-03-30T03:17:50.697Z,2.85
2018-03-30T03:18:50.696Z,2.80
2018-03-30T03:19:50.682Z,2.77
2018-03-30T03:20:50.668Z,2.74
2018-03-30T03:21:50.671Z,2.75
2018-03-30T03:22:50.654Z,2.79
2018-03-30T03:23:50.645Z,2.75
2018-03-30T03:24:50.633Z,2.80
2018-03-30T03:25:50.626Z,2.80
2018-03-30T03:26:50.622Z,2.75
2018-03-30T03:27:50.610Z,2.74
2018-03-30T03:28:50.653Z,2.71
2018-03-30T03:29:50.601Z,2.72
2018-03-30T03:30:50.577Z,2.79
2018-03-30T03:31:50.572Z,2.82
2018-03-30T03:32:50.564Z,2.69
2018-03-30T03:33:50.560Z,2.68
2018-03-30T03:34:50.547Z,2.65
2018-03-30T03:35:50.535Z,2.62
2018-03-30T03:36:50.528Z,2.71
2018-03-30T03:37:50.516Z,2.71
2018-03-30T03:38:50.511Z,2.69
2018-03-30T03:39:50.503Z,2.68
2018-03-30T03:40:50.492Z,2.67
2018-03-30T03:41:50.487Z,2.72
2018-03-30T03:42:50.464Z,2.75
2018-03-30T03:43:50.478Z,2.69
2018-03-30T03:44:50.449Z,2.68
2018-03-30T03:45:50.451Z,2.68
2018-03-30T03:46:50.435Z,2.67
2018-03-30T03:47:50.435Z,2.71
2018-03-30T03:48:50.421Z,2.64
2018-03-30T03:49:50.414Z,2.71
2018-03-30T03:50:50.399Z,2.67
2018-03-30T03:51:50.394Z,2.69
2018-03-30T03:52:50.386Z,2.67
2018-03-30T03:53:50.377Z,2.69
2018-03-30T03:54:50.369Z,2.57
2018-03-30T03:55:50.367Z,2.61
2018-03-30T03:56:50.344Z,2.60
2018-03-30T03:57:50.340Z,2.65
2018-03-30T03:58:50.330Z,2.65
2018-03-30T03:59:50.324Z,2.62
2018-03-30T04:00:50.315Z,2.57
2018-03-30T04:01:50.301Z,2.61
2018-03-30T04:02:50.309Z,2.53
2018-03-30T04:03:50.291Z,2.53
2018-03-30T04:04:50.277Z,2.47
2018-03-30T04:05:50.270Z,2.62
2018-03-30T04:06:50.257Z,2.50
2018-03-30T04:07:50.277Z,2.62
2018-03-30T04:08:50.939Z,2.53
2018-03-30T04:09:50.245Z,2.62
2018-03-30T04:10:50.223Z,2.49
2018-03-30T04:11:50.213Z,2.47
2018-03-30T04:12:50.207Z,2.61
2018-03-30T04:13:50.207Z,2.53
2018-03-30T04:14:50.190Z,2.46
2018-03-30T04:15:50.181Z,2.49
2018-03-30T04:16:50.164Z,2.49
2018-03-30T04:17:50.157Z,2.50
2018-03-30T04:18:50.153Z,2.49
2018-03-30T04:19:50.149Z,2.44
2018-03-30T04:20:50.137Z,2.46
2018-03-30T04:21:50.130Z,2.49
2018-03-30T04:22:50.116Z,2.51
2018-03-30T04:23:50.106Z,2.53
2018-03-30T04:24:50.096Z,2.46
2018-03-30T04:25:50.120Z,2.53
2018-03-30T04:26:50.083Z,2.44
2018-03-30T04:27:50.076Z,2.50
2018-03-30T04:28:50.065Z,2.47
2018-03-30T04:29:50.056Z,2.44
2018-03-30T04:30:50.048Z,2.47
2018-03-30T04:31:50.035Z,2.46
2018-03-30T04:32:50.029Z,2.49
2018-03-30T04:33:50.023Z,2.44
2018-03-30T04:34:50.004Z,2.47
2018-03-30T04:35:50.000Z,2.43
2018-03-30T04:36:49.986Z,2.42
2018-03-30T04:37:49.994Z,2.49
2018-03-30T04:38:49.968Z,2.49
2018-03-30T04:39:49.960Z,2.49
2018-03-30T04:40:49.952Z,2.44
2018-03-30T04:41:49.940Z,2.49
2018-03-30T04:42:49.933Z,2.43
2018-03-30T04:43:49.923Z,2.47
2018-03-30T04:44:49.910Z,2.43
2018-03-30T04:45:49.903Z,2.44
2018-03-30T04:46:49.901Z,2.44
2018-03-30T04:47:49.887Z,2.43
2018-03-30T04:48:49.877Z,2.42
2018-03-30T04:49:49.870Z,2.49
2018-03-30T04:50:49.862Z,2.39
2018-03-30T04:51:49.845Z,2.47
2018-03-30T04:52:49.837Z,2.43
2018-03-30T04:53:49.830Z,2.44
2018-03-30T04:54:49.820Z,2.36
2018-03-30T04:55:49.812Z,2.44
2018-03-30T04:56:49.800Z,2.44
2018-03-30T04:57:49.811Z,2.44
2018-03-30T04:58:49.786Z,2.36
2018-03-30T04:59:49.784Z,2.38
2018-03-30T05:00:49.771Z,2.38
2018-03-30T05:01:49.758Z,2.33
2018-03-30T05:02:49.751Z,2.43
2018-03-30T05:03:49.756Z,2.38
2018-03-30T05:04:49.734Z,2.33
2018-03-30T05:05:49.719Z,2.39
2018-03-30T05:06:49.711Z,2.32
2018-03-30T05:07:49.719Z,2.39
2018-03-30T05:08:49.688Z,2.36
2018-03-30T05:09:49.691Z,2.39
2018-03-30T05:10:49.680Z,2.43
2018-03-30T05:11:49.659Z,2.39
2018-03-30T05:12:49.666Z,2.44
2018-03-30T05:13:49.650Z,2.39
2018-03-30T05:14:49.643Z,2.43
2018-03-30T05:15:49.629Z,2.43
2018-03-30T05:16:49.613Z,2.31
2018-03-30T05:17:49.636Z,2.32
2018-03-30T05:18:49.608Z,2.29
2018-03-30T05:19:49.595Z,2.43
2018-03-30T05:20:49.594Z,2.35
2018-03-30T05:21:49.569Z,2.29
2018-03-30T05:22:49.561Z,2.28
2018-03-30T05:23:49.557Z,2.28
2018-03-30T05:24:49.546Z,2.29
2018-03-30T05:25:49.541Z,2.35
2018-03-30T05:26:49.525Z,2.33
2018-03-30T05:27:49.515Z,2.35
2018-03-30T05:28:49.509Z,2.43
2018-03-30T05:29:49.499Z,2.44
2018-03-30T05:30:49.496Z,2.44
2018-03-30T05:31:49.482Z,2.43
2018-03-30T05:32:49.468Z,2.43
2018-03-30T05:33:49.461Z,2.42
2018-03-30T05:34:49.453Z,2.50
2018-03-30T05:35:49.445Z,2.51
2018-03-30T05:36:49.434Z,2.47
2018-03-30T05:37:49.425Z,2.47
2018-03-30T05:38:49.416Z,2.46
2018-03-30T05:39:49.406Z,2.60
2018-03-30T05:40:49.400Z,2.56
2018-03-30T05:41:49.389Z,2.61
2018-03-30T05:42:49.379Z,2.60
2018-03-30T05:43:49.366Z,2.64
2018-03-30T05:44:49.360Z,2.64
2018-03-30T05:45:49.344Z,2.62
2018-03-30T05:46:49.343Z,2.67
2018-03-30T05:47:49.334Z,2.82
2018-03-30T05:48:49.322Z,2.72
2018-03-30T05:49:49.318Z,2.85
2018-03-30T05:50:49.303Z,2.74
2018-03-30T05:51:49.300Z,2.83
2018-03-30T05:52:49.287Z,2.93
2018-03-30T05:53:49.280Z,2.87
2018-03-30T05:54:49.270Z,2.95
2018-03-30T05:55:49.256Z,2.93
2018-03-30T05:56:49.250Z,3.04
2018-03-30T05:57:49.255Z,2.97
2018-03-30T05:58:49.238Z,3.03
2018-03-30T05:59:49.223Z,3.05
2018-03-30T06:00:49.214Z,3.08
2018-03-30T06:01:49.208Z,3.10
2018-03-30T06:02:49.194Z,3.13
2018-03-30T06:03:49.187Z,3.10
2018-03-30T06:04:49.171Z,3.11
2018-03-30T06:05:49.168Z,3.23
2018-03-30T06:06:49.169Z,3.25
2018-03-30T06:07:49.149Z,3.29
2018-03-30T06:08:49.139Z,3.31
2018-03-30T06:09:49.133Z,3.31
2018-03-30T06:10:49.122Z,3.31
2018-03-30T06:11:49.120Z,3.32
2018-03-30T06:12:49.109Z,3.28
2018-03-30T06:13:49.092Z,3.41
2018-03-30T06:14:49.089Z,3.37
2018-03-30T06:15:49.077Z,3.41
2018-03-30T06:16:49.072Z,3.40
2018-03-30T06:17:49.090Z,3.40
2018-03-30T06:18:49.053Z,3.41
2018-03-30T06:19:49.059Z,3.50
2018-03-30T06:20:49.030Z,3.42
2018-03-30T06:21:49.028Z,3.51
2018-03-30T06:22:49.027Z,3.50
2018-03-30T06:23:49.007Z,3.51
2018-03-30T06:24:49.003Z,3.59
2018-03-30T06:25:48.996Z,3.60
2018-03-30T06:26:49.037Z,3.66
2018-03-30T06:27:48.970Z,3.70
2018-03-30T06:28:48.967Z,3.53
2018-03-30T06:29:48.955Z,3.58
2018-03-30T06:30:48.944Z,3.70
2018-03-30T06:31:48.935Z,3.70
2018-03-30T06:32:48.927Z,3.76
2018-03-30T06:33:48.909Z,3.84
2018-03-30T06:34:48.909Z,3.74
2018-03-30T06:35:48.902Z,3.84
2018-03-30T06:36:48.901Z,3.88
2018-03-30T06:37:48.888Z,4.02
2018-03-30T06:38:48.899Z,3.94
2018-03-30T06:39:48.865Z,3.99
2018-03-30T06:40:48.854Z,4.01
2018-03-30T06:41:48.852Z,4.08
2018-03-30T06:42:48.841Z,4.08
2018-03-30T06:43:48.840Z,4.08
2018-03-30T06:44:48.826Z,4.10
2018-03-30T06:45:48.812Z,4.05
2018-03-30T06:46:48.807Z,4.06
2018-03-30T06:47:48.795Z,4.14
2018-03-30T06:48:48.789Z,4.16
2018-03-30T06:49:48.776Z,4.02
2018-03-30T06:50:48.768Z,4.17
2018-03-30T06:51:48.757Z,4.17
2018-03-30T06:52:48.759Z,4.19
2018-03-30T06:53:48.756Z,4.24
2018-03-30T06:54:48.745Z,4.13
2018-03-30T06:55:48.728Z,4.19
2018-03-30T06:56:48.718Z,4.22
2018-03-30T06:57:48.710Z,4.16
2018-03-30T06:58:48.710Z,4.22
2018-03-30T06:59:48.691Z,4.17
2018-03-30T07:00:48.684Z,4.17
2018-03-30T07:01:48.677Z,4.22
2018-03-30T07:02:48.672Z,4.17
2018-03-30T07:03:48.662Z,4.28
2018-03-30T07:04:48.649Z,4.32
2018-03-30T07:05:48.640Z,4.26
2018-03-30T07:06:48.631Z,4.32
2018-03-30T07:07:48.625Z,4.42
2018-03-30T07:08:48.615Z,4.44
2018-03-30T07:09:48.611Z,4.41
2018-03-30T07:10:48.598Z,4.45
2018-03-30T07:11:48.589Z,4.55
2018-03-30T07:12:48.579Z,4.53
2018-03-30T07:13:48.573Z,4.59
2018-03-30T07:14:48.564Z,4.63
2018-03-30T07:15:48.559Z,4.74
2018-03-30T07:16:48.558Z,4.70
2018-03-30T07:17:48.539Z,4.80
2018-03-30T07:18:48.530Z,4.68
2018-03-30T07:19:48.525Z,4.74
2018-03-30T07:20:48.513Z,4.80
2018-03-30T07:21:48.506Z,4.82
2018-03-30T07:22:48.494Z,4.90
2018-03-30T07:23:48.491Z,5.12
2018-03-30T07:24:48.478Z,5.00
2018-03-30T07:25:48.470Z,4.97
2018-03-30T07:26:48.480Z,5.11
2018-03-30T07:27:48.457Z,5.10
2018-03-30T07:28:48.444Z,5.18
2018-03-30T07:29:48.439Z,5.11
2018-03-30T07:30:48.431Z,5.18
2018-03-30T07:31:48.468Z,5.30
2018-03-30T07:32:48.413Z,5.29
2018-03-30T07:33:48.396Z,5.29
2018-03-30T07:34:48.392Z,5.26
2018-03-30T07:35:48.389Z,5.35
2018-03-30T07:36:48.380Z,5.38
2018-03-30T07:37:48.375Z,5.48
2018-03-30T07:38:48.363Z,5.39
2018-03-30T07:39:48.353Z,5.56
2018-03-30T07:40:48.344Z,5.57
2018-03-30T07:41:48.342Z,5.68
2018-03-30T07:42:48.324Z,5.65
2018-03-30T07:43:48.323Z,5.68
2018-03-30T07:44:48.318Z,5.73
2018-03-30T07:45:48.302Z,5.87
2018-03-30T07:46:48.291Z,5.82
2018-03-30T07:47:48.279Z,5.87
2018-03-30T07:48:48.277Z,6.01
2018-03-30T07:49:48.267Z,5.93
2018-03-30T07:50:48.262Z,5.99
2018-03-30T07:51:48.255Z,6.08
2018-03-30T07:52:48.245Z,6.08
2018-03-30T07:53:48.235Z,6.27
2018-03-30T07:54:48.231Z,6.27
2018-03-30T07:55:48.220Z,6.36
2018-03-30T07:56:48.222Z,6.38
2018-03-30T07:57:48.204Z,6.45
2018-03-30T07:58:49.064Z,6.48
2018-03-30T07:59:48.187Z,6.56
2018-03-30T08:00:48.179Z,6.59
2018-03-30T08:01:48.175Z,6.63
2018-03-30T08:02:48.166Z,6.56
2018-03-30T08:03:48.159Z,6.66
2018-03-30T08:04:48.150Z,6.77
2018-03-30T08:05:48.142Z,6.87
2018-03-30T08:06:48.136Z,6.92
2018-03-30T08:07:48.127Z,7.00
2018-03-30T08:08:48.120Z,7.03
2018-03-30T08:09:48.112Z,7.17
2018-03-30T08:10:48.105Z,7.21
2018-03-30T08:11:48.098Z,7.28
2018-03-30T08:12:48.089Z,7.38
2018-03-30T08:13:48.085Z,7.51
2018-03-30T08:14:48.076Z,7.60
2018-03-30T08:15:48.069Z,7.63
2018-03-30T08:16:48.059Z,7.63
2018-03-30T08:17:48.048Z,7.61
2018-03-30T08:18:48.044Z,7.61
2018-03-30T08:19:48.040Z,7.80
2018-03-30T08:20:48.028Z,7.76
2018-03-30T08:21:48.017Z,7.85
2018-03-30T08:22:48.015Z,7.82
2018-03-30T08:23:48.009Z,7.88
2018-03-30T08:24:47.999Z,7.90
2018-03-30T08:25:47.991Z,7.95
2018-03-30T08:26:47.989Z,7.83
2018-03-30T08:27:47.980Z,8.06
2018-03-30T08:28:47.968Z,7.93
2018-03-30T08:29:47.964Z,7.91
2018-03-30T08:30:47.955Z,7.95
2018-03-30T08:31:47.948Z,7.98
2018-03-30T08:32:47.947Z,7.97
2018-03-30T08:33:47.941Z,7.82
2018-03-30T08:34:47.934Z,7.90
2018-03-30T08:35:47.920Z,7.83
2018-03-30T08:36:47.911Z,7.93
2018-03-30T08:37:47.907Z,7.93
2018-03-30T08:38:47.900Z,8.00
2018-03-30T08:39:47.896Z,8.13
2018-03-30T08:40:47.882Z,8.10
2018-03-30T08:41:47.884Z,8.26
2018-03-30T08:42:47.872Z,8.37
2018-03-30T08:43:47.866Z,8.30
2018-03-30T08:44:47.859Z,8.31
2018-03-30T08:45:47.849Z,8.51
2018-03-30T08:46:47.842Z,8.56
2018-03-30T08:47:47.838Z,8.55
2018-03-30T08:48:47.846Z,8.60
2018-03-30T08:49:47.824Z,8.70
2018-03-30T08:50:47.820Z,8.70
2018-03-30T08:51:47.811Z,8.87
2018-03-30T08:52:47.799Z,8.92
2018-03-30T08:53:47.813Z,8.94
2018-03-30T08:54:47.786Z,9.10
2018-03-30T08:55:47.783Z,9.13
2018-03-30T08:56:47.773Z,9.22
2018-03-30T08:57:47.768Z,9.28
2018-03-30T08:58:47.757Z,9.44
2018-03-30T08:59:47.754Z,9.46
2018-03-30T09:00:47.750Z,9.48
2018-03-30T09:01:47.744Z,9.55
2018-03-30T09:02:47.740Z,9.51
2018-03-30T09:03:47.728Z,9.56
2018-03-30T09:04:47.720Z,9.59
2018-03-30T09:05:47.715Z,9.62
2018-03-30T09:06:47.705Z,9.87
2018-03-30T09:07:47.712Z,9.77
2018-03-30T09:08:47.692Z,9.94
2018-03-30T09:09:47.691Z,10.01
2018-03-30T09:10:47.683Z,10.10
2018-03-30T09:11:47.675Z,10.12
2018-03-30T09:12:47.671Z,10.15
2018-03-30T09:13:47.667Z,10.13
2018-03-30T09:14:47.658Z,10.28
2018-03-30T09:15:47.652Z,10.22
2018-03-30T09:16:47.643Z,10.22
2018-03-30T09:17:47.638Z,10.04
2018-03-30T09:18:47.631Z,10.02
2018-03-30T09:19:47.628Z,10.10
2018-03-30T09:20:47.625Z,10.07
2018-03-30T09:21:47.611Z,10.26
2018-03-30T09:22:47.604Z,10.26
2018-03-30T09:23:47.600Z,10.40
2018-03-30T09:24:47.596Z,10.38
2018-03-30T09:25:47.590Z,10.37
2018-03-30T09:26:47.581Z,10.42
2018-03-30T09:27:47.581Z,10.44
2018-03-30T09:28:47.574Z,10.41
2018-03-30T09:29:47.565Z,10.40
2018-03-30T09:30:47.578Z,10.40
2018-03-30T09:31:47.551Z,10.57
2018-03-30T09:32:47.544Z,10.56
2018-03-30T09:33:47.536Z,10.63
2018-03-30T09:34:47.536Z,10.63
2018-03-30T09:35:47.522Z,10.61
2018-03-30T09:36:47.519Z,10.61
2018-03-30T09:37:47.544Z,10.64
2018-03-30T09:38:47.510Z,10.61
2018-03-30T09:39:47.506Z,10.74
2018-03-30T09:40:47.493Z,10.64
2018-03-30T09:41:47.492Z,10.69
2018-03-30T09:42:47.491Z,10.76
2018-03-30T09:43:47.480Z,10.76
2018-03-30T09:44:47.475Z,10.79
2018-03-30T09:45:47.468Z,10.89
2018-03-30T09:46:47.469Z,10.96
2018-03-30T09:47:47.467Z,10.78
2018-03-30T09:48:47.448Z,10.94
2018-03-30T09:49:47.452Z,11.08
2018-03-30T09:50:47.445Z,11.08
2018-03-30T09:51:47.422Z,11.02
2018-03-30T09:52:47.427Z,11.04
2018-03-30T09:53:47.424Z,11.10
2018-03-30T09:54:47.415Z,11.11
2018-03-30T09:55:47.407Z,11.15
2018-03-30T09:56:47.398Z,11.17
2018-03-30T09:57:47.397Z,11.30
2018-03-30T09:58:47.405Z,11.36
2018-03-30T09:59:47.386Z,11.41
2018-03-30T10:00:47.385Z,11.43
2018-03-30T10:01:47.374Z,11.43
2018-03-30T10:02:47.363Z,11.40
2018-03-30T10:03:47.364Z,11.41
2018-03-30T10:04:47.379Z,11.54
2018-03-30T10:05:47.377Z,11.66
2018-03-30T10:06:47.344Z,11.77
2018-03-30T10:07:47.339Z,11.86
2018-03-30T10:08:47.336Z,11.94
2018-03-30T10:09:47.329Z,11.87
2018-03-30T10:10:47.323Z,11.81
2018-03-30T10:11:47.368Z,11.80
2018-03-30T10:12:47.346Z,11.73
2018-03-30T10:13:47.337Z,11.70
2018-03-30T10:14:47.308Z,11.84
2018-03-30T10:15:47.296Z,11.86
2018-03-30T10:16:47.317Z,11.95
2018-03-30T10:17:47.284Z,12.03
2018-03-30T10:18:47.280Z,12.00
